sensor_id;sensor_type;location;lat;lon;timestamp;P1;durP1;ratioP1;P2;durP2;ratioP2
10637;SDS011;47007;49.252;8.904;2022-09-03T00:01:44;0.45;;;0.30;;
10637;SDS011;47007;49.252;8.904;2022-09-03T00:04:18;1.38;;;0.30;;
10637;SDS011;47007;49.252;8.904;2022-09-03T00:06:54;1.15;;;0.45;;
10637;SDS011;47007;49.252;8.904;2022-09-03T00:09:30;1.55;;;0.43;;
10637;SDS011;47007;49.252;8.904;2022-09-03T00:12:20;1.33;;;0.40;;
10637;SDS011;47007;49.252;8.904;2022-09-03T00:15:05;0.63;;;0.40;;
10637;SDS011;47007;49.252;8.904;2022-09-03T00:17:35;0.60;;;0.40;;
10637;SDS011;47007;49.252;8.904;2022-09-03T00:20:11;1.80;;;0.30;;
10637;SDS011;47007;49.252;8.904;2022-09-03T00:22:48;1.17;;;0.30;;
10637;SDS011;47007;49.252;8.904;2022-09-03T00:25:23;0.60;;;0.32;;
10637;SDS011;47007;49.252;8.904;2022-09-03T00:27:55;1.80;;;0.55;;
10637;SDS011;47007;49.252;8.904;2022-09-03T00:30:24;1.95;;;0.43;;
10637;SDS011;47007;49.252;8.904;2022-09-03T00:32:53;0.98;;;0.57;;
10637;SDS011;47007;49.252;8.904;2022-09-03T00:35:31;1.08;;;0.40;;
10637;SDS011;47007;49.252;8.904;2022-09-03T00:38:03;0.52;;;0.30;;
10637;SDS011;47007;49.252;8.904;2022-09-03T00:54:24;1.25;;;0.50;;
10637;SDS011;47007;49.252;8.904;2022-09-03T01:06:04;1.20;;;0.65;;
10637;SDS011;47007;49.252;8.904;2022-09-03T01:13:20;0.40;;;0.40;;
10637;SDS011;47007;49.252;8.904;2022-09-03T01:38:22;1.10;;;0.40;;
10637;SDS011;47007;49.252;8.904;2022-09-03T01:50:05;0.30;;;0.30;;
10637;SDS011;47007;49.252;8.904;2022-09-03T01:52:45;0.32;;;0.30;;
10637;SDS011;47007;49.252;8.904;2022-09-03T01:58:16;0.80;;;0.40;;
10637;SDS011;47007;49.252;8.904;2022-09-03T02:00:48;0.55;;;0.30;;
10637;SDS011;47007;49.252;8.904;2022-09-03T02:03:22;1.02;;;0.30;;
10637;SDS011;47007;49.252;8.904;2022-09-03T02:05:51;2.10;;;0.40;;
10637;SDS011;47007;49.252;8.904;2022-09-03T02:08:18;0.65;;;0.50;;
10637;SDS011;47007;49.252;8.904;2022-09-03T02:10:47;0.73;;;0.30;;
10637;SDS011;47007;49.252;8.904;2022-09-03T02:13:21;0.35;;;0.30;;
10637;SDS011;47007;49.252;8.904;2022-09-03T02:15:53;1.27;;;0.40;;
10637;SDS011;47007;49.252;8.904;2022-09-03T02:18:30;0.60;;;0.30;;
10637;SDS011;47007;49.252;8.904;2022-09-03T02:21:03;0.57;;;0.30;;
10637;SDS011;47007;49.252;8.904;2022-09-03T02:23:30;1.10;;;0.40;;
10637;SDS011;47007;49.252;8.904;2022-09-03T02:25:59;0.40;;;0.30;;
10637;SDS011;47007;49.252;8.904;2022-09-03T02:28:27;0.40;;;0.40;;
10637;SDS011;47007;49.252;8.904;2022-09-03T02:30:56;0.65;;;0.30;;
10637;SDS011;47007;49.252;8.904;2022-09-03T02:33:23;0.77;;;0.40;;
10637;SDS011;47007;49.252;8.904;2022-09-03T02:35:50;0.52;;;0.40;;
10637;SDS011;47007;49.252;8.904;2022-09-03T02:38:20;0.32;;;0.32;;
10637;SDS011;47007;49.252;8.904;2022-09-03T02:40:51;0.30;;;0.30;;
10637;SDS011;47007;49.252;8.904;2022-09-03T02:46:22;1.17;;;0.30;;
10637;SDS011;47007;49.252;8.904;2022-09-03T02:48:53;0.32;;;0.32;;
10637;SDS011;47007;49.252;8.904;2022-09-03T02:51:20;0.82;;;0.30;;
10637;SDS011;47007;49.252;8.904;2022-09-03T02:53:47;1.23;;;0.30;;
10637;SDS011;47007;49.252;8.904;2022-09-03T02:56:16;1.40;;;0.40;;
10637;SDS011;47007;49.252;8.904;2022-09-03T02:58:43;0.30;;;0.30;;
10637;SDS011;47007;49.252;8.904;2022-09-03T03:01:10;1.08;;;0.40;;
10637;SDS011;47007;49.252;8.904;2022-09-03T03:03:49;0.30;;;0.30;;
10637;SDS011;47007;49.252;8.904;2022-09-03T03:06:16;1.30;;;0.32;;
10637;SDS011;47007;49.252;8.904;2022-09-03T03:08:46;1.15;;;0.40;;
10637;SDS011;47007;49.252;8.904;2022-09-03T03:11:15;0.28;;;0.28;;
10637;SDS011;47007;49.252;8.904;2022-09-03T03:13:44;1.27;;;0.40;;
10637;SDS011;47007;49.252;8.904;2022-09-03T03:16:12;1.08;;;0.30;;
10637;SDS011;47007;49.252;8.904;2022-09-03T03:18:40;0.60;;;0.40;;
10637;SDS011;47007;49.252;8.904;2022-09-03T03:21:08;0.52;;;0.50;;
10637;SDS011;47007;49.252;8.904;2022-09-03T03:23:37;0.75;;;0.40;;
10637;SDS011;47007;49.252;8.904;2022-09-03T03:26:05;0.63;;;0.30;;
10637;SDS011;47007;49.252;8.904;2022-09-03T03:28:33;2.25;;;0.40;;
10637;SDS011;47007;49.252;8.904;2022-09-03T03:31:10;1.40;;;0.40;;
10637;SDS011;47007;49.252;8.904;2022-09-03T03:33:40;0.30;;;0.30;;
10637;SDS011;47007;49.252;8.904;2022-09-03T03:36:08;0.38;;;0.38;;
10637;SDS011;47007;49.252;8.904;2022-09-03T03:38:40;0.32;;;0.30;;
10637;SDS011;47007;49.252;8.904;2022-09-03T03:41:21;0.57;;;0.52;;
10637;SDS011;47007;49.252;8.904;2022-09-03T03:43:52;1.27;;;0.47;;
10637;SDS011;47007;49.252;8.904;2022-09-03T03:46:21;0.40;;;0.40;;
10637;SDS011;47007;49.252;8.904;2022-09-03T03:48:49;0.63;;;0.22;;
10637;SDS011;47007;49.252;8.904;2022-09-03T03:51:17;0.68;;;0.40;;
10637;SDS011;47007;49.252;8.904;2022-09-03T03:53:44;0.47;;;0.30;;
10637;SDS011;47007;49.252;8.904;2022-09-03T03:56:13;1.00;;;0.30;;
10637;SDS011;47007;49.252;8.904;2022-09-03T03:58:42;1.95;;;0.40;;
10637;SDS011;47007;49.252;8.904;2022-09-03T04:03:36;0.50;;;0.50;;
10637;SDS011;47007;49.252;8.904;2022-09-03T04:06:03;0.40;;;0.30;;
10637;SDS011;47007;49.252;8.904;2022-09-03T04:08:35;0.50;;;0.30;;
10637;SDS011;47007;49.252;8.904;2022-09-03T04:11:04;1.33;;;0.40;;
10637;SDS011;47007;49.252;8.904;2022-09-03T04:13:34;0.25;;;0.25;;
10637;SDS011;47007;49.252;8.904;2022-09-03T04:16:04;0.47;;;0.40;;
10637;SDS011;47007;49.252;8.904;2022-09-03T04:18:32;1.10;;;0.30;;
10637;SDS011;47007;49.252;8.904;2022-09-03T04:21:04;1.05;;;0.40;;
10637;SDS011;47007;49.252;8.904;2022-09-03T04:23:34;0.73;;;0.35;;
10637;SDS011;47007;49.252;8.904;2022-09-03T04:26:03;2.53;;;0.43;;
10637;SDS011;47007;49.252;8.904;2022-09-03T04:28:31;0.95;;;0.50;;
10637;SDS011;47007;49.252;8.904;2022-09-03T04:30:59;0.35;;;0.30;;
10637;SDS011;47007;49.252;8.904;2022-09-03T04:33:27;0.82;;;0.60;;
10637;SDS011;47007;49.252;8.904;2022-09-03T04:36:18;1.33;;;0.47;;
10637;SDS011;47007;49.252;8.904;2022-09-03T04:38:44;1.35;;;0.50;;
10637;SDS011;47007;49.252;8.904;2022-09-03T04:41:13;1.13;;;0.50;;
10637;SDS011;47007;49.252;8.904;2022-09-03T04:43:42;2.00;;;0.60;;
10637;SDS011;47007;49.252;8.904;2022-09-03T04:46:12;0.68;;;0.47;;
10637;SDS011;47007;49.252;8.904;2022-09-03T04:48:43;0.63;;;0.40;;
10637;SDS011;47007;49.252;8.904;2022-09-03T04:51:13;0.95;;;0.47;;
10637;SDS011;47007;49.252;8.904;2022-09-03T04:53:42;2.78;;;0.55;;
10637;SDS011;47007;49.252;8.904;2022-09-03T04:56:15;0.30;;;0.30;;
10637;SDS011;47007;49.252;8.904;2022-09-03T04:58:44;1.42;;;0.40;;
10637;SDS011;47007;49.252;8.904;2022-09-03T05:01:15;1.67;;;0.52;;
10637;SDS011;47007;49.252;8.904;2022-09-03T05:03:43;1.65;;;0.68;;
10637;SDS011;47007;49.252;8.904;2022-09-03T05:06:11;0.57;;;0.57;;
10637;SDS011;47007;49.252;8.904;2022-09-03T05:08:38;0.40;;;0.40;;
10637;SDS011;47007;49.252;8.904;2022-09-03T05:11:06;0.50;;;0.40;;
10637;SDS011;47007;49.252;8.904;2022-09-03T05:13:33;1.13;;;0.40;;
10637;SDS011;47007;49.252;8.904;2022-09-03T05:16:03;1.75;;;0.50;;
10637;SDS011;47007;49.252;8.904;2022-09-03T05:18:32;1.52;;;0.50;;
10637;SDS011;47007;49.252;8.904;2022-09-03T05:21:04;1.48;;;0.40;;
10637;SDS011;47007;49.252;8.904;2022-09-03T05:23:51;1.23;;;0.50;;
10637;SDS011;47007;49.252;8.904;2022-09-03T05:26:22;2.03;;;0.70;;
10637;SDS011;47007;49.252;8.904;2022-09-03T05:28:55;0.68;;;0.57;;
10637;SDS011;47007;49.252;8.904;2022-09-03T05:31:24;1.88;;;0.77;;
10637;SDS011;47007;49.252;8.904;2022-09-03T05:33:54;1.00;;;0.60;;
10637;SDS011;47007;49.252;8.904;2022-09-03T05:36:26;0.50;;;0.50;;
10637;SDS011;47007;49.252;8.904;2022-09-03T05:38:56;1.58;;;0.85;;
10637;SDS011;47007;49.252;8.904;2022-09-03T05:41:24;1.35;;;0.90;;
10637;SDS011;47007;49.252;8.904;2022-09-03T05:43:53;1.75;;;0.73;;
10637;SDS011;47007;49.252;8.904;2022-09-03T05:46:22;1.60;;;0.90;;
10637;SDS011;47007;49.252;8.904;2022-09-03T05:48:56;0.90;;;0.50;;
10637;SDS011;47007;49.252;8.904;2022-09-03T05:51:27;1.50;;;0.70;;
10637;SDS011;47007;49.252;8.904;2022-09-03T05:53:55;1.38;;;0.82;;
10637;SDS011;47007;49.252;8.904;2022-09-03T05:56:24;1.00;;;0.63;;
10637;SDS011;47007;49.252;8.904;2022-09-03T05:58:52;0.65;;;0.52;;
10637;SDS011;47007;49.252;8.904;2022-09-03T06:01:22;1.00;;;0.70;;
10637;SDS011;47007;49.252;8.904;2022-09-03T06:03:55;0.77;;;0.60;;
10637;SDS011;47007;49.252;8.904;2022-09-03T06:06:52;1.55;;;0.77;;
10637;SDS011;47007;49.252;8.904;2022-09-03T06:09:20;0.70;;;0.70;;
10637;SDS011;47007;49.252;8.904;2022-09-03T06:11:49;1.42;;;0.60;;
10637;SDS011;47007;49.252;8.904;2022-09-03T06:14:18;1.25;;;0.80;;
10637;SDS011;47007;49.252;8.904;2022-09-03T06:16:46;0.82;;;0.73;;
10637;SDS011;47007;49.252;8.904;2022-09-03T06:19:18;0.73;;;0.60;;
10637;SDS011;47007;49.252;8.904;2022-09-03T06:21:45;0.45;;;0.45;;
10637;SDS011;47007;49.252;8.904;2022-09-03T06:26:51;1.35;;;0.57;;
10637;SDS011;47007;49.252;8.904;2022-09-03T06:29:18;0.60;;;0.60;;
10637;SDS011;47007;49.252;8.904;2022-09-03T06:31:46;0.85;;;0.60;;
10637;SDS011;47007;49.252;8.904;2022-09-03T06:34:28;1.80;;;0.68;;
10637;SDS011;47007;49.252;8.904;2022-09-03T06:36:54;4.93;;;2.88;;
10637;SDS011;47007;49.252;8.904;2022-09-03T06:39:21;4.05;;;2.70;;
10637;SDS011;47007;49.252;8.904;2022-09-03T06:41:48;2.22;;;1.40;;
10637;SDS011;47007;49.252;8.904;2022-09-03T06:44:23;1.42;;;1.00;;
10637;SDS011;47007;49.252;8.904;2022-09-03T06:46:50;0.63;;;0.63;;
10637;SDS011;47007;49.252;8.904;2022-09-03T06:49:18;0.60;;;0.60;;
10637;SDS011;47007;49.252;8.904;2022-09-03T06:51:46;1.25;;;0.60;;
10637;SDS011;47007;49.252;8.904;2022-09-03T06:54:13;2.05;;;1.33;;
10637;SDS011;47007;49.252;8.904;2022-09-03T06:56:41;1.58;;;0.60;;
10637;SDS011;47007;49.252;8.904;2022-09-03T06:59:12;0.93;;;0.90;;
10637;SDS011;47007;49.252;8.904;2022-09-03T07:01:40;1.30;;;0.70;;
10637;SDS011;47007;49.252;8.904;2022-09-03T07:04:12;0.82;;;0.50;;
10637;SDS011;47007;49.252;8.904;2022-09-03T07:06:42;0.90;;;0.57;;
10637;SDS011;47007;49.252;8.904;2022-09-03T07:09:10;1.38;;;0.50;;
10637;SDS011;47007;49.252;8.904;2022-09-03T07:11:38;1.02;;;0.93;;
10637;SDS011;47007;49.252;8.904;2022-09-03T07:14:13;1.33;;;0.50;;
10637;SDS011;47007;49.252;8.904;2022-09-03T07:16:40;0.70;;;0.70;;
10637;SDS011;47007;49.252;8.904;2022-09-03T07:19:08;1.15;;;0.60;;
10637;SDS011;47007;49.252;8.904;2022-09-03T07:21:35;2.10;;;0.80;;
10637;SDS011;47007;49.252;8.904;2022-09-03T07:24:03;2.42;;;0.63;;
10637;SDS011;47007;49.252;8.904;2022-09-03T07:26:32;0.77;;;0.75;;
10637;SDS011;47007;49.252;8.904;2022-09-03T07:29:01;1.38;;;0.93;;
10637;SDS011;47007;49.252;8.904;2022-09-03T07:31:32;2.40;;;0.82;;
10637;SDS011;47007;49.252;8.904;2022-09-03T07:34:11;2.00;;;1.10;;
10637;SDS011;47007;49.252;8.904;2022-09-03T07:36:40;0.93;;;0.93;;
10637;SDS011;47007;49.252;8.904;2022-09-03T07:39:14;1.42;;;1.00;;
10637;SDS011;47007;49.252;8.904;2022-09-03T07:41:42;1.20;;;1.10;;
10637;SDS011;47007;49.252;8.904;2022-09-03T07:44:12;4.70;;;0.90;;
10637;SDS011;47007;49.252;8.904;2022-09-03T07:46:41;2.92;;;1.15;;
10637;SDS011;47007;49.252;8.904;2022-09-03T07:49:10;1.15;;;1.15;;
10637;SDS011;47007;49.252;8.904;2022-09-03T07:51:37;1.50;;;1.30;;
10637;SDS011;47007;49.252;8.904;2022-09-03T07:54:31;1.27;;;1.20;;
10637;SDS011;47007;49.252;8.904;2022-09-03T07:56:58;1.27;;;1.17;;
10637;SDS011;47007;49.252;8.904;2022-09-03T07:59:25;1.30;;;1.20;;
10637;SDS011;47007;49.252;8.904;2022-09-03T08:01:51;1.45;;;1.30;;
10637;SDS011;47007;49.252;8.904;2022-09-03T08:04:18;2.58;;;1.27;;
10637;SDS011;47007;49.252;8.904;2022-09-03T08:06:47;1.70;;;1.40;;
10637;SDS011;47007;49.252;8.904;2022-09-03T08:09:14;1.00;;;1.00;;
10637;SDS011;47007;49.252;8.904;2022-09-03T08:11:42;1.65;;;1.10;;
10637;SDS011;47007;49.252;8.904;2022-09-03T08:14:10;2.00;;;1.30;;
10637;SDS011;47007;49.252;8.904;2022-09-03T08:16:39;2.22;;;1.15;;
10637;SDS011;47007;49.252;8.904;2022-09-03T08:19:07;3.30;;;1.10;;
10637;SDS011;47007;49.252;8.904;2022-09-03T08:21:36;2.05;;;0.70;;
10637;SDS011;47007;49.252;8.904;2022-09-03T08:24:03;1.15;;;0.63;;
10637;SDS011;47007;49.252;8.904;2022-09-03T08:26:35;1.80;;;0.82;;
10637;SDS011;47007;49.252;8.904;2022-09-03T08:29:03;1.15;;;0.90;;
10637;SDS011;47007;49.252;8.904;2022-09-03T08:31:31;1.33;;;1.10;;
10637;SDS011;47007;49.252;8.904;2022-09-03T08:34:00;1.00;;;0.88;;
10637;SDS011;47007;49.252;8.904;2022-09-03T08:36:36;1.60;;;0.90;;
10637;SDS011;47007;49.252;8.904;2022-09-03T08:39:05;0.80;;;0.80;;
10637;SDS011;47007;49.252;8.904;2022-09-03T08:47:10;1.08;;;1.00;;
10637;SDS011;47007;49.252;8.904;2022-09-03T08:52:37;2.05;;;1.50;;
10637;SDS011;47007;49.252;8.904;2022-09-03T08:57:47;3.85;;;2.10;;
10637;SDS011;47007;49.252;8.904;2022-09-03T09:03:21;2.58;;;1.83;;
10637;SDS011;47007;49.252;8.904;2022-09-03T09:06:13;2.63;;;1.80;;
10637;SDS011;47007;49.252;8.904;2022-09-03T09:14:22;5.18;;;2.67;;
10637;SDS011;47007;49.252;8.904;2022-09-03T09:16:56;4.95;;;2.30;;
10637;SDS011;47007;49.252;8.904;2022-09-03T09:22:58;2.58;;;2.15;;
10637;SDS011;47007;49.252;8.904;2022-09-03T09:25:23;4.10;;;1.85;;
10637;SDS011;47007;49.252;8.904;2022-09-03T09:27:57;2.38;;;1.70;;
10637;SDS011;47007;49.252;8.904;2022-09-03T09:30:30;2.63;;;1.75;;
10637;SDS011;47007;49.252;8.904;2022-09-03T09:32:58;2.63;;;1.95;;
10637;SDS011;47007;49.252;8.904;2022-09-03T09:35:26;2.83;;;1.88;;
10637;SDS011;47007;49.252;8.904;2022-09-03T09:37:54;2.67;;;1.55;;
10637;SDS011;47007;49.252;8.904;2022-09-03T09:43:02;2.03;;;1.77;;
10637;SDS011;47007;49.252;8.904;2022-09-03T09:45:38;3.25;;;2.03;;
10637;SDS011;47007;49.252;8.904;2022-09-03T09:48:12;3.05;;;1.50;;
10637;SDS011;47007;49.252;8.904;2022-09-03T09:50:43;3.53;;;1.30;;
10637;SDS011;47007;49.252;8.904;2022-09-03T09:53:11;1.98;;;1.17;;
10637;SDS011;47007;49.252;8.904;2022-09-03T09:55:54;1.30;;;1.20;;
10637;SDS011;47007;49.252;8.904;2022-09-03T09:58:24;1.35;;;1.25;;
10637;SDS011;47007;49.252;8.904;2022-09-03T10:01:01;2.70;;;1.92;;
10637;SDS011;47007;49.252;8.904;2022-09-03T10:03:48;2.65;;;1.67;;
10637;SDS011;47007;49.252;8.904;2022-09-03T10:06:26;2.15;;;1.50;;
10637;SDS011;47007;49.252;8.904;2022-09-03T10:09:16;2.95;;;1.92;;
10637;SDS011;47007;49.252;8.904;2022-09-03T10:14:46;2.00;;;1.90;;
10637;SDS011;47007;49.252;8.904;2022-09-03T10:18:26;3.67;;;2.17;;
10637;SDS011;47007;49.252;8.904;2022-09-03T10:23:24;2.28;;;2.08;;
10637;SDS011;47007;49.252;8.904;2022-09-03T10:26:11;4.20;;;2.20;;
10637;SDS011;47007;49.252;8.904;2022-09-03T10:28:45;2.85;;;2.38;;
10637;SDS011;47007;49.252;8.904;2022-09-03T10:44:17;3.67;;;2.80;;
10637;SDS011;47007;49.252;8.904;2022-09-03T10:46:30;3.30;;;3.00;;
10637;SDS011;47007;49.252;8.904;2022-09-03T10:52:11;2.92;;;2.70;;
10637;SDS011;47007;49.252;8.904;2022-09-03T11:00:31;3.67;;;3.38;;
10637;SDS011;47007;49.252;8.904;2022-09-03T11:10:49;3.58;;;3.28;;
10637;SDS011;47007;49.252;8.904;2022-09-03T11:13:25;3.20;;;3.00;;
10637;SDS011;47007;49.252;8.904;2022-09-03T11:15:57;4.70;;;3.45;;
10637;SDS011;47007;49.252;8.904;2022-09-03T11:18:31;3.30;;;2.97;;
10637;SDS011;47007;49.252;8.904;2022-09-03T11:21:07;3.25;;;3.05;;
10637;SDS011;47007;49.252;8.904;2022-09-03T11:23:40;2.80;;;2.50;;
10637;SDS011;47007;49.252;8.904;2022-09-03T11:26:17;3.30;;;2.40;;
10637;SDS011;47007;49.252;8.904;2022-09-03T11:28:52;2.63;;;2.45;;
10637;SDS011;47007;49.252;8.904;2022-09-03T11:34:05;2.50;;;2.30;;
10637;SDS011;47007;49.252;8.904;2022-09-03T11:36:49;3.85;;;3.53;;
10637;SDS011;47007;49.252;8.904;2022-09-03T11:39:19;4.20;;;3.03;;
10637;SDS011;47007;49.252;8.904;2022-09-03T11:41:56;2.25;;;2.10;;
10637;SDS011;47007;49.252;8.904;2022-09-03T11:44:32;2.50;;;2.30;;
10637;SDS011;47007;49.252;8.904;2022-09-03T11:47:23;2.97;;;2.53;;
10637;SDS011;47007;49.252;8.904;2022-09-03T11:50:08;1.98;;;1.88;;
10637;SDS011;47007;49.252;8.904;2022-09-03T11:52:47;4.28;;;3.90;;
10637;SDS011;47007;49.252;8.904;2022-09-03T11:55:28;2.53;;;2.03;;
10637;SDS011;47007;49.252;8.904;2022-09-03T11:58:18;2.13;;;1.92;;
10637;SDS011;47007;49.252;8.904;2022-09-03T12:00:54;1.58;;;1.48;;
10637;SDS011;47007;49.252;8.904;2022-09-03T12:03:25;1.58;;;1.48;;
10637;SDS011;47007;49.252;8.904;2022-09-03T12:06:12;2.10;;;1.13;;
10637;SDS011;47007;49.252;8.904;2022-09-03T12:14:42;2.35;;;1.63;;
10637;SDS011;47007;49.252;8.904;2022-09-03T12:17:34;1.40;;;1.30;;
10637;SDS011;47007;49.252;8.904;2022-09-03T12:20:43;1.40;;;1.30;;
10637;SDS011;47007;49.252;8.904;2022-09-03T12:23:24;3.63;;;1.52;;
10637;SDS011;47007;49.252;8.904;2022-09-03T12:25:53;1.27;;;1.15;;
10637;SDS011;47007;49.252;8.904;2022-09-03T12:28:21;1.45;;;1.35;;
10637;SDS011;47007;49.252;8.904;2022-09-03T12:30:50;1.52;;;1.25;;
10637;SDS011;47007;49.252;8.904;2022-09-03T12:33:19;1.67;;;1.33;;
10637;SDS011;47007;49.252;8.904;2022-09-03T12:39:08;1.58;;;1.48;;
10637;SDS011;47007;49.252;8.904;2022-09-03T12:41:46;1.60;;;1.50;;
10637;SDS011;47007;49.252;8.904;2022-09-03T12:44:28;2.17;;;2.05;;
10637;SDS011;47007;49.252;8.904;2022-09-03T12:47:03;2.10;;;1.45;;
10637;SDS011;47007;49.252;8.904;2022-09-03T12:49:51;2.30;;;2.10;;
10637;SDS011;47007;49.252;8.904;2022-09-03T12:52:30;2.15;;;1.73;;
10637;SDS011;47007;49.252;8.904;2022-09-03T12:57:44;1.80;;;1.70;;
10637;SDS011;47007;49.252;8.904;2022-09-03T13:00:15;1.50;;;1.40;;
10637;SDS011;47007;49.252;8.904;2022-09-03T13:05:24;1.10;;;1.10;;
10637;SDS011;47007;49.252;8.904;2022-09-03T13:07:59;1.52;;;1.40;;
10637;SDS011;47007;49.252;8.904;2022-09-03T13:10:31;1.40;;;1.30;;
10637;SDS011;47007;49.252;8.904;2022-09-03T13:13:16;1.60;;;1.50;;
10637;SDS011;47007;49.252;8.904;2022-09-03T13:16:10;1.00;;;1.00;;
10637;SDS011;47007;49.252;8.904;2022-09-03T13:30:14;1.25;;;1.10;;
10637;SDS011;47007;49.252;8.904;2022-09-03T13:47:11;2.53;;;2.00;;
10637;SDS011;47007;49.252;8.904;2022-09-03T13:53:01;2.17;;;1.98;;
10637;SDS011;47007;49.252;8.904;2022-09-03T13:55:43;1.83;;;1.73;;
10637;SDS011;47007;49.252;8.904;2022-09-03T14:03:43;2.55;;;2.35;;
10637;SDS011;47007;49.252;8.904;2022-09-03T14:09:14;4.28;;;2.00;;
10637;SDS011;47007;49.252;8.904;2022-09-03T14:22:19;3.60;;;1.95;;
10637;SDS011;47007;49.252;8.904;2022-09-03T14:24:51;2.25;;;1.98;;
10637;SDS011;47007;49.252;8.904;2022-09-03T14:27:34;2.08;;;1.88;;
10637;SDS011;47007;49.252;8.904;2022-09-03T14:35:27;2.25;;;2.05;;
10637;SDS011;47007;49.252;8.904;2022-09-03T15:07:42;1.95;;;1.85;;
10637;SDS011;47007;49.252;8.904;2022-09-03T15:10:20;1.70;;;1.60;;
10637;SDS011;47007;49.252;8.904;2022-09-03T15:13:15;1.10;;;1.00;;
10637;SDS011;47007;49.252;8.904;2022-09-03T15:19:02;0.73;;;0.73;;
10637;SDS011;47007;49.252;8.904;2022-09-03T15:30:11;0.63;;;0.60;;
10637;SDS011;47007;49.252;8.904;2022-09-03T15:35:37;1.42;;;1.10;;
10637;SDS011;47007;49.252;8.904;2022-09-03T15:38:33;1.27;;;1.13;;
10637;SDS011;47007;49.252;8.904;2022-09-03T15:41:05;1.15;;;0.90;;
10637;SDS011;47007;49.252;8.904;2022-09-03T15:43:47;0.70;;;0.70;;
10637;SDS011;47007;49.252;8.904;2022-09-03T15:48:56;1.67;;;1.20;;
10637;SDS011;47007;49.252;8.904;2022-09-03T15:51:29;2.83;;;1.27;;
10637;SDS011;47007;49.252;8.904;2022-09-03T15:54:05;2.40;;;1.27;;
10637;SDS011;47007;49.252;8.904;2022-09-03T15:59:40;1.95;;;1.35;;
10637;SDS011;47007;49.252;8.904;2022-09-03T16:02:17;1.63;;;1.52;;
10637;SDS011;47007;49.252;8.904;2022-09-03T16:07:52;2.20;;;1.20;;
10637;SDS011;47007;49.252;8.904;2022-09-03T16:10:34;1.50;;;1.40;;
10637;SDS011;47007;49.252;8.904;2022-09-03T16:19:23;1.40;;;1.27;;
10637;SDS011;47007;49.252;8.904;2022-09-03T16:21:58;1.90;;;1.10;;
10637;SDS011;47007;49.252;8.904;2022-09-03T16:30:09;1.08;;;1.08;;
10637;SDS011;47007;49.252;8.904;2022-09-03T16:35:30;1.80;;;1.30;;
10637;SDS011;47007;49.252;8.904;2022-09-03T16:41:07;1.55;;;1.45;;
10637;SDS011;47007;49.252;8.904;2022-09-03T16:43:46;1.02;;;1.00;;
10637;SDS011;47007;49.252;8.904;2022-09-03T16:55:18;1.75;;;1.65;;
10637;SDS011;47007;49.252;8.904;2022-09-03T17:01:20;2.20;;;1.98;;
10637;SDS011;47007;49.252;8.904;2022-09-03T17:17:46;1.30;;;1.00;;
10637;SDS011;47007;49.252;8.904;2022-09-03T17:23:40;2.67;;;2.03;;
10637;SDS011;47007;49.252;8.904;2022-09-03T17:26:37;2.15;;;1.95;;
10637;SDS011;47007;49.252;8.904;2022-09-03T17:40:26;3.00;;;2.40;;
10637;SDS011;47007;49.252;8.904;2022-09-03T17:44:27;1.50;;;1.40;;
10637;SDS011;47007;49.252;8.904;2022-09-03T17:49:01;1.40;;;1.30;;
10637;SDS011;47007;49.252;8.904;2022-09-03T17:51:43;1.40;;;1.30;;
10637;SDS011;47007;49.252;8.904;2022-09-03T17:59:26;1.10;;;1.00;;
10637;SDS011;47007;49.252;8.904;2022-09-03T18:02:03;1.05;;;1.05;;
10637;SDS011;47007;49.252;8.904;2022-09-03T18:07:22;1.50;;;1.40;;
10637;SDS011;47007;49.252;8.904;2022-09-03T18:15:10;1.80;;;1.70;;
10637;SDS011;47007;49.252;8.904;2022-09-03T18:17:50;1.58;;;1.48;;
10637;SDS011;47007;49.252;8.904;2022-09-03T18:20:23;1.80;;;1.70;;
10637;SDS011;47007;49.252;8.904;2022-09-03T18:23:18;3.20;;;2.90;;
10637;SDS011;47007;49.252;8.904;2022-09-03T18:26:14;1.92;;;1.83;;
10637;SDS011;47007;49.252;8.904;2022-09-03T18:29:11;2.28;;;2.00;;
10637;SDS011;47007;49.252;8.904;2022-09-03T18:32:19;2.22;;;2.10;;
10637;SDS011;47007;49.252;8.904;2022-09-03T18:35:06;2.20;;;1.63;;
10637;SDS011;47007;49.252;8.904;2022-09-03T18:37:52;1.60;;;1.50;;
10637;SDS011;47007;49.252;8.904;2022-09-03T18:40:42;1.35;;;1.25;;
10637;SDS011;47007;49.252;8.904;2022-09-03T18:46:31;3.03;;;2.70;;
10637;SDS011;47007;49.252;8.904;2022-09-03T18:59:14;2.42;;;1.90;;
10637;SDS011;47007;49.252;8.904;2022-09-03T19:02:40;2.90;;;2.20;;
10637;SDS011;47007;49.252;8.904;2022-09-03T19:08:28;2.30;;;2.10;;
10637;SDS011;47007;49.252;8.904;2022-09-03T19:11:35;3.30;;;2.45;;
10637;SDS011;47007;49.252;8.904;2022-09-03T19:14:48;4.72;;;2.90;;
10637;SDS011;47007;49.252;8.904;2022-09-03T19:23:59;3.58;;;3.28;;
10637;SDS011;47007;49.252;8.904;2022-09-03T19:36:45;2.60;;;2.00;;
10637;SDS011;47007;49.252;8.904;2022-09-03T19:52:00;2.50;;;1.90;;
10637;SDS011;47007;49.252;8.904;2022-09-03T19:54:53;2.47;;;2.17;;
10637;SDS011;47007;49.252;8.904;2022-09-03T19:57:42;2.10;;;1.90;;
10637;SDS011;47007;49.252;8.904;2022-09-03T20:00:52;3.00;;;2.50;;
10637;SDS011;47007;49.252;8.904;2022-09-03T20:03:37;2.55;;;2.35;;
10637;SDS011;47007;49.252;8.904;2022-09-03T20:06:23;2.20;;;2.10;;
10637;SDS011;47007;49.252;8.904;2022-09-03T20:09:09;2.40;;;2.20;;
10637;SDS011;47007;49.252;8.904;2022-09-03T20:12:03;3.08;;;2.88;;
10637;SDS011;47007;49.252;8.904;2022-09-03T20:14:35;3.17;;;2.95;;
10637;SDS011;47007;49.252;8.904;2022-09-03T20:17:12;3.97;;;3.10;;
10637;SDS011;47007;49.252;8.904;2022-09-03T20:22:30;4.18;;;3.38;;
10637;SDS011;47007;49.252;8.904;2022-09-03T20:25:14;4.00;;;3.70;;
10637;SDS011;47007;49.252;8.904;2022-09-03T20:28:15;4.90;;;4.50;;
10637;SDS011;47007;49.252;8.904;2022-09-03T20:47:02;3.13;;;2.92;;
10637;SDS011;47007;49.252;8.904;2022-09-03T20:49:35;3.40;;;3.13;;
10637;SDS011;47007;49.252;8.904;2022-09-03T20:55:08;3.28;;;2.97;;
10637;SDS011;47007;49.252;8.904;2022-09-03T20:57:47;4.40;;;4.00;;
10637;SDS011;47007;49.252;8.904;2022-09-03T21:00:24;3.78;;;3.50;;
10637;SDS011;47007;49.252;8.904;2022-09-03T21:05:53;4.32;;;3.95;;
10637;SDS011;47007;49.252;8.904;2022-09-03T21:11:20;3.50;;;3.20;;
10637;SDS011;47007;49.252;8.904;2022-09-03T21:19:20;2.78;;;2.58;;
10637;SDS011;47007;49.252;8.904;2022-09-03T21:22:06;2.85;;;2.50;;
10637;SDS011;47007;49.252;8.904;2022-09-03T21:24:53;3.08;;;2.88;;
10637;SDS011;47007;49.252;8.904;2022-09-03T21:27:28;3.70;;;2.83;;
10637;SDS011;47007;49.252;8.904;2022-09-03T21:30:04;2.80;;;2.45;;
10637;SDS011;47007;49.252;8.904;2022-09-03T21:35:07;4.45;;;4.05;;
10637;SDS011;47007;49.252;8.904;2022-09-03T21:38:10;4.57;;;4.28;;
10637;SDS011;47007;49.252;8.904;2022-09-03T21:40:46;2.72;;;2.60;;
10637;SDS011;47007;49.252;8.904;2022-09-03T21:43:46;3.50;;;3.13;;
10637;SDS011;47007;49.252;8.904;2022-09-03T21:49:16;4.60;;;4.20;;
10637;SDS011;47007;49.252;8.904;2022-09-03T21:51:51;4.22;;;3.83;;
10637;SDS011;47007;49.252;8.904;2022-09-03T21:54:25;4.00;;;3.60;;
10637;SDS011;47007;49.252;8.904;2022-09-03T22:04:52;3.60;;;3.30;;
10637;SDS011;47007;49.252;8.904;2022-09-03T22:12:55;4.43;;;3.95;;
10637;SDS011;47007;49.252;8.904;2022-09-03T22:15:35;3.90;;;3.60;;
10637;SDS011;47007;49.252;8.904;2022-09-03T22:18:23;4.18;;;3.88;;
10637;SDS011;47007;49.252;8.904;2022-09-03T22:20:58;4.18;;;3.78;;
10637;SDS011;47007;49.252;8.904;2022-09-03T22:23:33;3.42;;;3.10;;
10637;SDS011;47007;49.252;8.904;2022-09-03T22:46:17;6.07;;;5.50;;
10637;SDS011;47007;49.252;8.904;2022-09-03T22:49:05;5.15;;;4.75;;
10637;SDS011;47007;49.252;8.904;2022-09-03T22:57:49;4.97;;;4.60;;
10637;SDS011;47007;49.252;8.904;2022-09-03T23:00:24;4.70;;;4.30;;
10637;SDS011;47007;49.252;8.904;2022-09-03T23:03:01;5.25;;;4.85;;
10637;SDS011;47007;49.252;8.904;2022-09-03T23:08:46;5.32;;;4.85;;
10637;SDS011;47007;49.252;8.904;2022-09-03T23:11:22;4.68;;;4.28;;